DAOV

Ghriss Airport

Algeria
METAR DAOV 221800Z 12005KT 9000 NSC 28/13 Q1011
Observed Flight Rules
Apr-22 @ 18:00 UTC (23 minutes ago) Visual Flight Rules
Wind Visibility Clouds
120° at 5 knots 8,996 meters
  • Clear skies
Temperatures Readings
Current 28°C / 82°F
Dewpoint 13°C / 55°F
Humidity 40%
Altimeter 29.85" Hg
Pressure 1011 hPa
Elevation 514
METAR DAOV 221800Z 12005KT 9000 NSC 28/13 Q1011
Observed Flight Rules
Apr-22 @ 18:00 UTC
(23 minutes ago)
VFR
Wind Visibility
120° at 5 knots 8,996 meters
Clouds
  • Clear skies
Temperature Dewpoint
28°C / 82°F 13°C / 55°F
Humidity Altimeter Pressure
40% 29.85" Hg 1011 hPa